sensor_id;sensor_type;location;lat;lon;timestamp;temperature;humidity
25939;DHT22;13739;51.172;4.466;2023-03-24T00:02:24;13.10;27.00
25939;DHT22;13739;51.172;4.466;2023-03-24T00:04:53;13.10;27.60
25939;DHT22;13739;51.172;4.466;2023-03-24T00:07:24;13.10;29.40
25939;DHT22;13739;51.172;4.466;2023-03-24T00:09:50;13.20;27.50
25939;DHT22;13739;51.172;4.466;2023-03-24T00:12:15;13.20;26.10
25939;DHT22;13739;51.172;4.466;2023-03-24T00:14:43;13.20;28.70
25939;DHT22;13739;51.172;4.466;2023-03-24T00:17:11;13.20;32.20
25939;DHT22;13739;51.172;4.466;2023-03-24T00:19:39;13.10;31.70
25939;DHT22;13739;51.172;4.466;2023-03-24T00:22:06;13.10;40.60
25939;DHT22;13739;51.172;4.466;2023-03-24T00:24:32;13.10;40.30
25939;DHT22;13739;51.172;4.466;2023-03-24T00:26:59;13.10;43.20
25939;DHT22;13739;51.172;4.466;2023-03-24T00:29:26;13.10;42.50
25939;DHT22;13739;51.172;4.466;2023-03-24T00:31:52;13.10;41.50
25939;DHT22;13739;51.172;4.466;2023-03-24T00:34:19;13.10;43.70
25939;DHT22;13739;51.172;4.466;2023-03-24T00:36:49;13.10;46.10
25939;DHT22;13739;51.172;4.466;2023-03-24T00:39:19;13.10;49.10
25939;DHT22;13739;51.172;4.466;2023-03-24T00:41:47;13.10;50.00
25939;DHT22;13739;51.172;4.466;2023-03-24T00:44:15;13.00;56.60
25939;DHT22;13739;51.172;4.466;2023-03-24T00:46:52;13.00;59.40
25939;DHT22;13739;51.172;4.466;2023-03-24T00:49:24;13.00;60.20
25939;DHT22;13739;51.172;4.466;2023-03-24T00:52:12;13.00;59.40
25939;DHT22;13739;51.172;4.466;2023-03-24T00:54:39;13.00;54.80
25939;DHT22;13739;51.172;4.466;2023-03-24T00:57:08;13.00;53.00
25939;DHT22;13739;51.172;4.466;2023-03-24T00:59:37;13.00;52.00
25939;DHT22;13739;51.172;4.466;2023-03-24T01:02:10;13.10;50.00
25939;DHT22;13739;51.172;4.466;2023-03-24T01:04:39;13.10;46.00
25939;DHT22;13739;51.172;4.466;2023-03-24T01:07:06;13.10;45.50
25939;DHT22;13739;51.172;4.466;2023-03-24T01:09:34;13.10;37.80
25939;DHT22;13739;51.172;4.466;2023-03-24T01:12:04;13.10;39.70
25939;DHT22;13739;51.172;4.466;2023-03-24T01:14:31;13.20;34.00
25939;DHT22;13739;51.172;4.466;2023-03-24T01:16:58;13.20;30.00
25939;DHT22;13739;51.172;4.466;2023-03-24T01:19:24;13.20;31.80
25939;DHT22;13739;51.172;4.466;2023-03-24T01:21:50;13.20;28.10
25939;DHT22;13739;51.172;4.466;2023-03-24T01:24:19;13.20;27.40
25939;DHT22;13739;51.172;4.466;2023-03-24T01:26:45;13.30;29.90
25939;DHT22;13739;51.172;4.466;2023-03-24T01:29:11;13.30;31.90
25939;DHT22;13739;51.172;4.466;2023-03-24T01:31:37;13.20;41.20
25939;DHT22;13739;51.172;4.466;2023-03-24T01:34:03;13.20;46.40
25939;DHT22;13739;51.172;4.466;2023-03-24T01:36:29;13.10;49.20
25939;DHT22;13739;51.172;4.466;2023-03-24T01:38:55;13.10;50.50
25939;DHT22;13739;51.172;4.466;2023-03-24T01:41:23;13.10;54.20
25939;DHT22;13739;51.172;4.466;2023-03-24T01:43:49;13.10;55.90
25939;DHT22;13739;51.172;4.466;2023-03-24T01:46:19;13.10;53.80
25939;DHT22;13739;51.172;4.466;2023-03-24T01:51:32;13.10;57.50
25939;DHT22;13739;51.172;4.466;2023-03-24T01:54:07;13.10;61.00
25939;DHT22;13739;51.172;4.466;2023-03-24T01:56:38;13.10;59.40
25939;DHT22;13739;51.172;4.466;2023-03-24T01:59:09;13.10;57.30
25939;DHT22;13739;51.172;4.466;2023-03-24T02:01:35;13.10;57.90
25939;DHT22;13739;51.172;4.466;2023-03-24T02:04:04;13.10;57.40
25939;DHT22;13739;51.172;4.466;2023-03-24T02:06:32;13.10;49.70
25939;DHT22;13739;51.172;4.466;2023-03-24T02:08:59;13.10;51.10
25939;DHT22;13739;51.172;4.466;2023-03-24T02:11:28;13.00;45.70
25939;DHT22;13739;51.172;4.466;2023-03-24T02:13:54;13.00;34.20
25939;DHT22;13739;51.172;4.466;2023-03-24T02:20:27;13.00;34.20
25939;DHT22;13739;51.172;4.466;2023-03-24T02:28:22;12.70;1.00
25939;DHT22;13739;51.172;4.466;2023-03-24T02:36:30;12.50;1.00
25939;DHT22;13739;51.172;4.466;2023-03-24T02:52:22;11.90;1.00
25939;DHT22;13739;51.172;4.466;2023-03-24T02:55:06;11.80;1.00
25939;DHT22;13739;51.172;4.466;2023-03-24T02:57:42;11.70;1.00
25939;DHT22;13739;51.172;4.466;2023-03-24T03:02:57;11.70;1.00
25939;DHT22;13739;51.172;4.466;2023-03-24T03:05:30;11.60;1.00
25939;DHT22;13739;51.172;4.466;2023-03-24T03:08:01;11.60;1.00
25939;DHT22;13739;51.172;4.466;2023-03-24T03:10:40;11.60;1.00
25939;DHT22;13739;51.172;4.466;2023-03-24T03:13:19;11.50;1.00
25939;DHT22;13739;51.172;4.466;2023-03-24T03:15:50;11.50;1.00
25939;DHT22;13739;51.172;4.466;2023-03-24T03:18:28;11.50;1.00
25939;DHT22;13739;51.172;4.466;2023-03-24T03:21:07;11.50;1.00
25939;DHT22;13739;51.172;4.466;2023-03-24T03:23:41;11.60;1.00
25939;DHT22;13739;51.172;4.466;2023-03-24T03:26:12;11.60;1.00
25939;DHT22;13739;51.172;4.466;2023-03-24T03:28:43;11.60;1.00
25939;DHT22;13739;51.172;4.466;2023-03-24T03:31:20;11.60;1.00
25939;DHT22;13739;51.172;4.466;2023-03-24T03:34:13;11.60;1.00
25939;DHT22;13739;51.172;4.466;2023-03-24T03:39:21;11.60;1.00
25939;DHT22;13739;51.172;4.466;2023-03-24T03:41:48;11.60;1.00
25939;DHT22;13739;51.172;4.466;2023-03-24T03:44:14;11.60;1.00
25939;DHT22;13739;51.172;4.466;2023-03-24T03:46:41;11.60;1.00
25939;DHT22;13739;51.172;4.466;2023-03-24T03:49:07;11.50;1.00
25939;DHT22;13739;51.172;4.466;2023-03-24T03:51:33;11.60;1.00
25939;DHT22;13739;51.172;4.466;2023-03-24T03:54:02;11.70;1.00
25939;DHT22;13739;51.172;4.466;2023-03-24T03:56:32;11.60;1.00
25939;DHT22;13739;51.172;4.466;2023-03-24T03:58:58;11.50;1.00
25939;DHT22;13739;51.172;4.466;2023-03-24T04:01:26;11.50;1.00
25939;DHT22;13739;51.172;4.466;2023-03-24T04:06:47;11.50;1.00
25939;DHT22;13739;51.172;4.466;2023-03-24T04:14:52;11.50;1.00
25939;DHT22;13739;51.172;4.466;2023-03-24T04:17:49;11.60;1.00
25939;DHT22;13739;51.172;4.466;2023-03-24T04:20:32;11.50;1.00
25939;DHT22;13739;51.172;4.466;2023-03-24T04:26:26;11.40;1.00
25939;DHT22;13739;51.172;4.466;2023-03-24T04:32:02;11.30;1.00
25939;DHT22;13739;51.172;4.466;2023-03-24T04:34:39;11.30;1.00
25939;DHT22;13739;51.172;4.466;2023-03-24T04:37:32;11.30;1.00
25939;DHT22;13739;51.172;4.466;2023-03-24T04:40:05;11.30;1.00
25939;DHT22;13739;51.172;4.466;2023-03-24T04:42:38;11.30;1.00
25939;DHT22;13739;51.172;4.466;2023-03-24T04:45:06;11.30;1.00
25939;DHT22;13739;51.172;4.466;2023-03-24T04:47:38;11.30;1.00
25939;DHT22;13739;51.172;4.466;2023-03-24T04:50:08;11.20;1.00
25939;DHT22;13739;51.172;4.466;2023-03-24T04:52:37;11.30;1.00
25939;DHT22;13739;51.172;4.466;2023-03-24T04:57:43;11.30;1.00
25939;DHT22;13739;51.172;4.466;2023-03-24T05:00:09;11.30;1.00
25939;DHT22;13739;51.172;4.466;2023-03-24T05:02:37;11.30;1.00
25939;DHT22;13739;51.172;4.466;2023-03-24T05:05:03;11.30;1.00
25939;DHT22;13739;51.172;4.466;2023-03-24T05:07:28;11.40;1.00
25939;DHT22;13739;51.172;4.466;2023-03-24T05:09:56;11.30;1.00
25939;DHT22;13739;51.172;4.466;2023-03-24T05:12:21;11.30;1.00
25939;DHT22;13739;51.172;4.466;2023-03-24T05:14:47;11.30;1.00
25939;DHT22;13739;51.172;4.466;2023-03-24T05:17:13;11.20;1.00
25939;DHT22;13739;51.172;4.466;2023-03-24T05:19:38;11.00;1.00
25939;DHT22;13739;51.172;4.466;2023-03-24T05:22:04;10.90;1.00
25939;DHT22;13739;51.172;4.466;2023-03-24T05:24:30;10.90;1.00
25939;DHT22;13739;51.172;4.466;2023-03-24T05:26:56;10.80;1.00
25939;DHT22;13739;51.172;4.466;2023-03-24T05:29:22;10.80;1.00
25939;DHT22;13739;51.172;4.466;2023-03-24T05:31:47;10.70;1.00
25939;DHT22;13739;51.172;4.466;2023-03-24T05:34:13;10.80;1.00
25939;DHT22;13739;51.172;4.466;2023-03-24T05:36:39;10.70;1.00
25939;DHT22;13739;51.172;4.466;2023-03-24T05:39:04;10.70;1.00
25939;DHT22;13739;51.172;4.466;2023-03-24T05:41:30;10.70;1.00
25939;DHT22;13739;51.172;4.466;2023-03-24T05:43:56;10.70;1.00
25939;DHT22;13739;51.172;4.466;2023-03-24T05:46:21;10.60;1.00
25939;DHT22;13739;51.172;4.466;2023-03-24T05:48:47;10.70;1.00
25939;DHT22;13739;51.172;4.466;2023-03-24T05:51:13;10.70;1.00
25939;DHT22;13739;51.172;4.466;2023-03-24T05:53:38;10.80;1.00
25939;DHT22;13739;51.172;4.466;2023-03-24T05:56:04;10.90;1.00
25939;DHT22;13739;51.172;4.466;2023-03-24T05:58:30;10.90;1.00
25939;DHT22;13739;51.172;4.466;2023-03-24T06:00:59;10.80;1.00
25939;DHT22;13739;51.172;4.466;2023-03-24T06:03:30;10.80;1.00
25939;DHT22;13739;51.172;4.466;2023-03-24T06:05:58;10.70;1.00
25939;DHT22;13739;51.172;4.466;2023-03-24T06:08:24;10.70;1.00
25939;DHT22;13739;51.172;4.466;2023-03-24T06:10:52;10.80;1.00
25939;DHT22;13739;51.172;4.466;2023-03-24T06:13:18;10.70;1.00
25939;DHT22;13739;51.172;4.466;2023-03-24T06:15:44;10.70;1.00
25939;DHT22;13739;51.172;4.466;2023-03-24T06:18:12;10.70;1.00
25939;DHT22;13739;51.172;4.466;2023-03-24T06:20:38;10.70;1.00
25939;DHT22;13739;51.172;4.466;2023-03-24T06:23:05;10.70;1.00
25939;DHT22;13739;51.172;4.466;2023-03-24T06:25:31;10.70;1.00
25939;DHT22;13739;51.172;4.466;2023-03-24T06:27:58;10.70;1.00
25939;DHT22;13739;51.172;4.466;2023-03-24T06:30:28;10.70;1.00
25939;DHT22;13739;51.172;4.466;2023-03-24T06:32:54;10.70;1.00
25939;DHT22;13739;51.172;4.466;2023-03-24T06:35:20;10.80;1.00
25939;DHT22;13739;51.172;4.466;2023-03-24T06:37:46;10.80;1.00
25939;DHT22;13739;51.172;4.466;2023-03-24T06:40:12;10.90;1.00
25939;DHT22;13739;51.172;4.466;2023-03-24T06:42:40;11.00;1.00
25939;DHT22;13739;51.172;4.466;2023-03-24T06:45:06;11.10;1.00
25939;DHT22;13739;51.172;4.466;2023-03-24T06:47:32;11.10;1.00
25939;DHT22;13739;51.172;4.466;2023-03-24T06:49:59;11.20;1.00
25939;DHT22;13739;51.172;4.466;2023-03-24T06:52:25;11.20;1.00
25939;DHT22;13739;51.172;4.466;2023-03-24T06:54:52;11.20;1.00
25939;DHT22;13739;51.172;4.466;2023-03-24T06:57:17;11.10;1.00
25939;DHT22;13739;51.172;4.466;2023-03-24T06:59:43;11.10;1.00
25939;DHT22;13739;51.172;4.466;2023-03-24T07:02:12;11.20;1.00
25939;DHT22;13739;51.172;4.466;2023-03-24T07:04:37;11.20;1.00
25939;DHT22;13739;51.172;4.466;2023-03-24T07:07:03;11.20;1.00
25939;DHT22;13739;51.172;4.466;2023-03-24T07:09:29;11.30;1.00
25939;DHT22;13739;51.172;4.466;2023-03-24T07:11:55;11.40;1.00
25939;DHT22;13739;51.172;4.466;2023-03-24T07:14:20;11.40;1.00
25939;DHT22;13739;51.172;4.466;2023-03-24T07:16:46;11.40;1.00
25939;DHT22;13739;51.172;4.466;2023-03-24T07:19:12;11.50;1.00
25939;DHT22;13739;51.172;4.466;2023-03-24T07:21:37;11.50;1.00
25939;DHT22;13739;51.172;4.466;2023-03-24T07:24:03;11.50;1.00
25939;DHT22;13739;51.172;4.466;2023-03-24T07:26:29;11.30;1.00
25939;DHT22;13739;51.172;4.466;2023-03-24T07:28:55;11.60;1.00
25939;DHT22;13739;51.172;4.466;2023-03-24T07:31:20;11.50;1.00
25939;DHT22;13739;51.172;4.466;2023-03-24T07:33:47;11.50;1.00
25939;DHT22;13739;51.172;4.466;2023-03-24T07:36:12;11.60;1.00
25939;DHT22;13739;51.172;4.466;2023-03-24T07:38:38;11.70;1.00
25939;DHT22;13739;51.172;4.466;2023-03-24T07:41:04;11.80;99.90
25939;DHT22;13739;51.172;4.466;2023-03-24T07:43:30;11.90;99.90
25939;DHT22;13739;51.172;4.466;2023-03-24T07:45:56;11.90;99.90
25939;DHT22;13739;51.172;4.466;2023-03-24T07:48:21;11.90;99.90
25939;DHT22;13739;51.172;4.466;2023-03-24T07:50:47;11.90;99.90
25939;DHT22;13739;51.172;4.466;2023-03-24T07:53:13;11.90;99.90
25939;DHT22;13739;51.172;4.466;2023-03-24T07:55:42;12.00;99.90
25939;DHT22;13739;51.172;4.466;2023-03-24T07:58:08;12.00;99.90
25939;DHT22;13739;51.172;4.466;2023-03-24T08:00:34;12.10;99.90
25939;DHT22;13739;51.172;4.466;2023-03-24T08:03:00;12.10;99.90
25939;DHT22;13739;51.172;4.466;2023-03-24T08:05:27;12.10;99.90
25939;DHT22;13739;51.172;4.466;2023-03-24T08:07:54;12.10;99.90
25939;DHT22;13739;51.172;4.466;2023-03-24T08:10:23;12.10;29.40
25939;DHT22;13739;51.172;4.466;2023-03-24T08:12:49;12.10;57.60
25939;DHT22;13739;51.172;4.466;2023-03-24T08:15:15;12.10;1.00
25939;DHT22;13739;51.172;4.466;2023-03-24T08:17:42;12.10;99.90
25939;DHT22;13739;51.172;4.466;2023-03-24T08:20:09;12.00;41.30
25939;DHT22;13739;51.172;4.466;2023-03-24T08:22:40;12.00;90.20
25939;DHT22;13739;51.172;4.466;2023-03-24T08:25:08;12.10;1.00
25939;DHT22;13739;51.172;4.466;2023-03-24T08:27:34;12.10;1.00
25939;DHT22;13739;51.172;4.466;2023-03-24T08:30:05;12.10;1.00
25939;DHT22;13739;51.172;4.466;2023-03-24T08:32:31;12.00;42.60
25939;DHT22;13739;51.172;4.466;2023-03-24T08:34:57;12.00;67.00
25939;DHT22;13739;51.172;4.466;2023-03-24T08:37:23;12.20;1.00
25939;DHT22;13739;51.172;4.466;2023-03-24T08:39:48;12.20;1.00
25939;DHT22;13739;51.172;4.466;2023-03-24T08:42:14;12.30;1.00
25939;DHT22;13739;51.172;4.466;2023-03-24T08:44:40;12.30;1.00
25939;DHT22;13739;51.172;4.466;2023-03-24T08:47:06;12.40;99.90
25939;DHT22;13739;51.172;4.466;2023-03-24T08:49:32;12.50;1.00
25939;DHT22;13739;51.172;4.466;2023-03-24T08:51:58;12.40;98.10
25939;DHT22;13739;51.172;4.466;2023-03-24T08:54:24;12.50;1.00
25939;DHT22;13739;51.172;4.466;2023-03-24T08:56:50;12.50;99.90
25939;DHT22;13739;51.172;4.466;2023-03-24T08:59:17;12.70;1.00
25939;DHT22;13739;51.172;4.466;2023-03-24T09:01:42;12.80;85.20
25939;DHT22;13739;51.172;4.466;2023-03-24T09:04:08;12.80;99.90
25939;DHT22;13739;51.172;4.466;2023-03-24T09:06:34;12.70;99.90
25939;DHT22;13739;51.172;4.466;2023-03-24T09:09:00;12.60;1.00
25939;DHT22;13739;51.172;4.466;2023-03-24T09:11:25;12.70;99.90
25939;DHT22;13739;51.172;4.466;2023-03-24T09:13:51;12.80;99.90
25939;DHT22;13739;51.172;4.466;2023-03-24T09:16:18;12.80;99.90
25939;DHT22;13739;51.172;4.466;2023-03-24T09:18:44;13.00;1.00
25939;DHT22;13739;51.172;4.466;2023-03-24T09:21:10;13.30;5.00
25939;DHT22;13739;51.172;4.466;2023-03-24T09:23:35;13.40;99.90
25939;DHT22;13739;51.172;4.466;2023-03-24T09:26:02;13.30;1.00
25939;DHT22;13739;51.172;4.466;2023-03-24T09:28:28;13.40;99.90
25939;DHT22;13739;51.172;4.466;2023-03-24T09:31:02;13.20;99.90
25939;DHT22;13739;51.172;4.466;2023-03-24T09:33:29;13.00;99.90
25939;DHT22;13739;51.172;4.466;2023-03-24T09:35:56;12.90;1.00
25939;DHT22;13739;51.172;4.466;2023-03-24T09:38:22;12.90;99.90
25939;DHT22;13739;51.172;4.466;2023-03-24T09:40:54;13.00;99.90
25939;DHT22;13739;51.172;4.466;2023-03-24T09:43:36;13.10;99.90
25939;DHT22;13739;51.172;4.466;2023-03-24T09:46:52;13.10;99.90
25939;DHT22;13739;51.172;4.466;2023-03-24T09:48:54;13.10;99.90
25939;DHT22;13739;51.172;4.466;2023-03-24T09:51:22;13.20;99.90
25939;DHT22;13739;51.172;4.466;2023-03-24T09:53:55;13.20;1.00
25939;DHT22;13739;51.172;4.466;2023-03-24T09:56:22;13.20;99.90
25939;DHT22;13739;51.172;4.466;2023-03-24T09:59:18;13.20;99.90
25939;DHT22;13739;51.172;4.466;2023-03-24T10:01:47;13.40;1.00
25939;DHT22;13739;51.172;4.466;2023-03-24T10:04:18;13.70;99.90
25939;DHT22;13739;51.172;4.466;2023-03-24T10:06:46;13.90;1.00
25939;DHT22;13739;51.172;4.466;2023-03-24T10:09:27;14.00;99.90
25939;DHT22;13739;51.172;4.466;2023-03-24T10:12:35;14.00;99.90
25939;DHT22;13739;51.172;4.466;2023-03-24T10:15:34;13.80;99.90
25939;DHT22;13739;51.172;4.466;2023-03-24T10:20:51;14.10;99.90
25939;DHT22;13739;51.172;4.466;2023-03-24T10:28:52;14.00;99.90
25939;DHT22;13739;51.172;4.466;2023-03-24T10:31:28;13.90;99.90
25939;DHT22;13739;51.172;4.466;2023-03-24T10:33:55;13.80;1.00
25939;DHT22;13739;51.172;4.466;2023-03-24T10:36:21;13.70;99.90
25939;DHT22;13739;51.172;4.466;2023-03-24T10:38:48;13.70;99.90
25939;DHT22;13739;51.172;4.466;2023-03-24T10:41:25;13.60;1.00
25939;DHT22;13739;51.172;4.466;2023-03-24T10:43:54;13.50;99.90
25939;DHT22;13739;51.172;4.466;2023-03-24T10:46:23;13.50;99.90
25939;DHT22;13739;51.172;4.466;2023-03-24T10:48:51;13.40;99.90
25939;DHT22;13739;51.172;4.466;2023-03-24T10:51:26;13.40;1.00
25939;DHT22;13739;51.172;4.466;2023-03-24T10:54:16;13.20;1.00
25939;DHT22;13739;51.172;4.466;2023-03-24T10:57:06;12.70;99.90
25939;DHT22;13739;51.172;4.466;2023-03-24T10:59:57;12.00;1.00
25939;DHT22;13739;51.172;4.466;2023-03-24T11:05:11;11.10;15.50
25939;DHT22;13739;51.172;4.466;2023-03-24T11:07:41;11.00;41.60
25939;DHT22;13739;51.172;4.466;2023-03-24T11:12:37;11.00;41.00
25939;DHT22;13739;51.172;4.466;2023-03-24T11:15:20;11.00;47.30
25939;DHT22;13739;51.172;4.466;2023-03-24T11:17:53;11.10;62.40
25939;DHT22;13739;51.172;4.466;2023-03-24T11:20:30;11.50;73.50
25939;DHT22;13739;51.172;4.466;2023-03-24T11:25:39;11.70;59.00
25939;DHT22;13739;51.172;4.466;2023-03-24T11:28:15;11.50;45.10
25939;DHT22;13739;51.172;4.466;2023-03-24T11:30:49;11.50;59.00
25939;DHT22;13739;51.172;4.466;2023-03-24T11:33:30;11.50;55.00
25939;DHT22;13739;51.172;4.466;2023-03-24T11:35:59;11.50;46.30
25939;DHT22;13739;51.172;4.466;2023-03-24T11:38:32;11.40;45.70
25939;DHT22;13739;51.172;4.466;2023-03-24T11:41:01;11.40;44.90
25939;DHT22;13739;51.172;4.466;2023-03-24T11:43:30;11.20;40.00
25939;DHT22;13739;51.172;4.466;2023-03-24T11:46:06;11.10;31.80
25939;DHT22;13739;51.172;4.466;2023-03-24T11:48:54;11.00;26.10
25939;DHT22;13739;51.172;4.466;2023-03-24T11:51:29;11.10;15.10
25939;DHT22;13739;51.172;4.466;2023-03-24T11:53:58;11.20;28.40
25939;DHT22;13739;51.172;4.466;2023-03-24T11:56:40;11.40;26.70
25939;DHT22;13739;51.172;4.466;2023-03-24T12:08:05;12.00;37.00
25939;DHT22;13739;51.172;4.466;2023-03-24T12:10:49;12.00;40.00
25939;DHT22;13739;51.172;4.466;2023-03-24T12:33:29;13.20;10.50
25939;DHT22;13739;51.172;4.466;2023-03-24T12:36:28;13.50;1.00
25939;DHT22;13739;51.172;4.466;2023-03-24T12:58:30;13.50;1.00
25939;DHT22;13739;51.172;4.466;2023-03-24T13:01:06;13.60;1.00
25939;DHT22;13739;51.172;4.466;2023-03-24T13:03:40;13.60;99.90
25939;DHT22;13739;51.172;4.466;2023-03-24T13:06:36;13.70;99.90
25939;DHT22;13739;51.172;4.466;2023-03-24T13:09:30;13.90;1.00
25939;DHT22;13739;51.172;4.466;2023-03-24T13:12:11;13.90;8.60
25939;DHT22;13739;51.172;4.466;2023-03-24T13:15:14;13.90;81.00
25939;DHT22;13739;51.172;4.466;2023-03-24T13:18:05;14.10;1.00
25939;DHT22;13739;51.172;4.466;2023-03-24T13:20:36;14.10;1.00
25939;DHT22;13739;51.172;4.466;2023-03-24T13:26:19;14.40;17.30
25939;DHT22;13739;51.172;4.466;2023-03-24T13:31:39;14.60;1.00
25939;DHT22;13739;51.172;4.466;2023-03-24T13:34:20;14.50;1.00
25939;DHT22;13739;51.172;4.466;2023-03-24T13:36:50;14.40;99.90
25939;DHT22;13739;51.172;4.466;2023-03-24T13:39:20;14.30;99.90
25939;DHT22;13739;51.172;4.466;2023-03-24T13:41:51;14.20;99.90
25939;DHT22;13739;51.172;4.466;2023-03-24T13:44:55;14.30;99.90
25939;DHT22;13739;51.172;4.466;2023-03-24T13:47:17;14.10;99.90
25939;DHT22;13739;51.172;4.466;2023-03-24T13:50:04;14.30;1.00
25939;DHT22;13739;51.172;4.466;2023-03-24T13:52:36;14.60;99.90
25939;DHT22;13739;51.172;4.466;2023-03-24T13:55:12;14.60;1.00
25939;DHT22;13739;51.172;4.466;2023-03-24T13:57:51;14.60;99.90
25939;DHT22;13739;51.172;4.466;2023-03-24T14:00:20;14.50;99.90
25939;DHT22;13739;51.172;4.466;2023-03-24T14:02:54;14.40;1.00
25939;DHT22;13739;51.172;4.466;2023-03-24T14:05:40;14.20;1.00
25939;DHT22;13739;51.172;4.466;2023-03-24T14:10:48;14.20;99.90
25939;DHT22;13739;51.172;4.466;2023-03-24T14:15:45;14.50;99.90
25939;DHT22;13739;51.172;4.466;2023-03-24T14:21:00;14.50;99.90
25939;DHT22;13739;51.172;4.466;2023-03-24T14:23:44;14.60;99.90
25939;DHT22;13739;51.172;4.466;2023-03-24T14:28:49;14.30;99.90
25939;DHT22;13739;51.172;4.466;2023-03-24T14:31:22;14.30;89.30
25939;DHT22;13739;51.172;4.466;2023-03-24T14:38:51;14.20;99.90
25939;DHT22;13739;51.172;4.466;2023-03-24T14:41:27;14.20;1.00
25939;DHT22;13739;51.172;4.466;2023-03-24T14:44:00;14.00;99.90
25939;DHT22;13739;51.172;4.466;2023-03-24T14:46:46;14.00;1.00
25939;DHT22;13739;51.172;4.466;2023-03-24T14:52:10;14.00;1.00
25939;DHT22;13739;51.172;4.466;2023-03-24T14:54:45;14.00;1.00
25939;DHT22;13739;51.172;4.466;2023-03-24T14:57:23;13.90;99.90
25939;DHT22;13739;51.172;4.466;2023-03-24T15:00:26;14.10;99.90
25939;DHT22;13739;51.172;4.466;2023-03-24T15:03:14;14.00;1.00
25939;DHT22;13739;51.172;4.466;2023-03-24T15:05:42;13.80;1.00
25939;DHT22;13739;51.172;4.466;2023-03-24T15:11:00;13.90;1.00
25939;DHT22;13739;51.172;4.466;2023-03-24T15:15:57;14.20;1.00
25939;DHT22;13739;51.172;4.466;2023-03-24T15:18:24;14.20;99.90
25939;DHT22;13739;51.172;4.466;2023-03-24T15:20:51;14.20;94.70
25939;DHT22;13739;51.172;4.466;2023-03-24T15:23:20;14.30;99.90
25939;DHT22;13739;51.172;4.466;2023-03-24T15:25:46;14.30;1.00
25939;DHT22;13739;51.172;4.466;2023-03-24T15:28:28;14.60;99.90
25939;DHT22;13739;51.172;4.466;2023-03-24T15:30:56;14.70;99.90
25939;DHT22;13739;51.172;4.466;2023-03-24T15:33:23;14.80;99.90
25939;DHT22;13739;51.172;4.466;2023-03-24T15:35:59;14.90;1.00
25939;DHT22;13739;51.172;4.466;2023-03-24T15:38:31;15.10;1.00
25939;DHT22;13739;51.172;4.466;2023-03-24T15:41:01;15.00;99.90
25939;DHT22;13739;51.172;4.466;2023-03-24T15:43:27;15.20;99.90
25939;DHT22;13739;51.172;4.466;2023-03-24T15:45:55;15.40;99.90
25939;DHT22;13739;51.172;4.466;2023-03-24T15:48:25;15.50;99.90
25939;DHT22;13739;51.172;4.466;2023-03-24T15:51:03;15.40;1.00
25939;DHT22;13739;51.172;4.466;2023-03-24T15:53:38;15.50;1.00
25939;DHT22;13739;51.172;4.466;2023-03-24T15:56:23;15.70;99.90
25939;DHT22;13739;51.172;4.466;2023-03-24T15:58:55;16.10;99.90
25939;DHT22;13739;51.172;4.466;2023-03-24T16:01:27;15.80;99.90
25939;DHT22;13739;51.172;4.466;2023-03-24T16:04:01;15.60;1.00
25939;DHT22;13739;51.172;4.466;2023-03-24T16:06:32;15.50;1.00
25939;DHT22;13739;51.172;4.466;2023-03-24T16:09:10;15.50;1.00
25939;DHT22;13739;51.172;4.466;2023-03-24T16:11:38;15.30;1.00
25939;DHT22;13739;51.172;4.466;2023-03-24T16:14:26;15.30;1.00
25939;DHT22;13739;51.172;4.466;2023-03-24T16:16:54;15.50;1.00
25939;DHT22;13739;51.172;4.466;2023-03-24T16:19:20;15.70;1.00
25939;DHT22;13739;51.172;4.466;2023-03-24T16:21:46;15.60;99.90
25939;DHT22;13739;51.172;4.466;2023-03-24T16:24:11;15.50;99.90
25939;DHT22;13739;51.172;4.466;2023-03-24T16:26:37;15.20;1.00
25939;DHT22;13739;51.172;4.466;2023-03-24T16:29:20;15.10;1.00
25939;DHT22;13739;51.172;4.466;2023-03-24T16:31:49;14.90;99.90
25939;DHT22;13739;51.172;4.466;2023-03-24T16:34:19;14.80;99.90
25939;DHT22;13739;51.172;4.466;2023-03-24T16:36:46;14.70;1.00
25939;DHT22;13739;51.172;4.466;2023-03-24T16:39:15;14.60;1.00
25939;DHT22;13739;51.172;4.466;2023-03-24T16:41:41;14.50;1.00
25939;DHT22;13739;51.172;4.466;2023-03-24T16:44:07;14.30;1.00
25939;DHT22;13739;51.172;4.466;2023-03-24T16:46:34;14.20;1.00
25939;DHT22;13739;51.172;4.466;2023-03-24T16:49:02;14.20;99.90
25939;DHT22;13739;51.172;4.466;2023-03-24T16:51:28;14.20;99.90
25939;DHT22;13739;51.172;4.466;2023-03-24T16:53:54;14.10;36.20
25939;DHT22;13739;51.172;4.466;2023-03-24T16:56:21;14.00;99.90
25939;DHT22;13739;51.172;4.466;2023-03-24T16:58:47;13.90;99.90
25939;DHT22;13739;51.172;4.466;2023-03-24T17:03:58;13.80;99.90
25939;DHT22;13739;51.172;4.466;2023-03-24T17:06:26;13.60;1.00
25939;DHT22;13739;51.172;4.466;2023-03-24T17:08:52;13.60;1.00
25939;DHT22;13739;51.172;4.466;2023-03-24T17:11:33;13.60;99.90
25939;DHT22;13739;51.172;4.466;2023-03-24T17:13:59;13.50;99.90
25939;DHT22;13739;51.172;4.466;2023-03-24T17:16:34;13.40;99.90
25939;DHT22;13739;51.172;4.466;2023-03-24T17:19:02;13.30;37.50
25939;DHT22;13739;51.172;4.466;2023-03-24T17:21:28;13.10;99.90
25939;DHT22;13739;51.172;4.466;2023-03-24T17:23:55;13.10;99.90
25939;DHT22;13739;51.172;4.466;2023-03-24T17:26:22;13.10;1.00
25939;DHT22;13739;51.172;4.466;2023-03-24T17:28:48;13.00;99.90
25939;DHT22;13739;51.172;4.466;2023-03-24T17:31:13;12.90;99.90
25939;DHT22;13739;51.172;4.466;2023-03-24T17:33:39;12.90;1.00
25939;DHT22;13739;51.172;4.466;2023-03-24T17:36:11;12.80;99.90
25939;DHT22;13739;51.172;4.466;2023-03-24T17:38:37;12.70;1.00
25939;DHT22;13739;51.172;4.466;2023-03-24T17:41:04;12.60;1.00
25939;DHT22;13739;51.172;4.466;2023-03-24T17:43:30;12.50;1.00
25939;DHT22;13739;51.172;4.466;2023-03-24T17:46:00;12.50;1.00
25939;DHT22;13739;51.172;4.466;2023-03-24T17:48:27;12.50;1.00
25939;DHT22;13739;51.172;4.466;2023-03-24T17:50:54;12.50;1.00
25939;DHT22;13739;51.172;4.466;2023-03-24T17:53:20;12.30;1.00
25939;DHT22;13739;51.172;4.466;2023-03-24T17:55:53;12.40;1.00
25939;DHT22;13739;51.172;4.466;2023-03-24T17:58:20;12.40;1.00
25939;DHT22;13739;51.172;4.466;2023-03-24T18:00:46;12.30;1.00
25939;DHT22;13739;51.172;4.466;2023-03-24T18:03:12;12.20;1.00
25939;DHT22;13739;51.172;4.466;2023-03-24T18:05:38;12.10;1.00
25939;DHT22;13739;51.172;4.466;2023-03-24T18:08:03;12.00;1.00
25939;DHT22;13739;51.172;4.466;2023-03-24T18:10:30;11.90;1.00
25939;DHT22;13739;51.172;4.466;2023-03-24T18:12:58;11.80;1.00
25939;DHT22;13739;51.172;4.466;2023-03-24T18:15:26;11.80;1.00
25939;DHT22;13739;51.172;4.466;2023-03-24T18:17:52;11.70;1.00
25939;DHT22;13739;51.172;4.466;2023-03-24T18:20:17;11.70;1.00
25939;DHT22;13739;51.172;4.466;2023-03-24T18:22:43;11.60;1.00
25939;DHT22;13739;51.172;4.466;2023-03-24T18:25:10;11.60;1.00
25939;DHT22;13739;51.172;4.466;2023-03-24T18:27:38;11.50;1.00
25939;DHT22;13739;51.172;4.466;2023-03-24T18:30:05;11.50;1.00
25939;DHT22;13739;51.172;4.466;2023-03-24T18:32:32;11.50;1.00